Date,TemperatureHighF,TemperatureAvgF,TemperatureLowF,DewpointHighF,DewpointAvgF,DewpointLowF,HumidityHigh,HumidityAvg,HumidityLow,PressureMaxIn,PressureMinIn,WindSpeedMaxMPH,WindSpeedAvgMPH,GustSpeedMaxMPH,PrecipitationSumIn
2013-2-1,36.3,24.3,14.2,14.4,9.2,5.5,76,54,35,30.69,30.41,20,5,20,0.00
2013-2-2,55.2,41.3,28.2,34.2,25.5,13.1,83,55,35,30.51,30.40,27,6,27,0.00
2013-2-3,55.9,45.8,32.7,30.2,25.1,20.3,70,46,27,30.48,30.03,23,7,24,0.00
2013-2-4,54.1,45.7,35.2,31.6,29.8,27.1,72,55,39,30.15,29.98,21,7,21,0.00
2013-2-5,63.5,47.2,30.0,31.8,26.9,24.1,85,51,23,30.23,30.10,19,5,19,0.00
2013-2-6,57.4,50.7,40.8,54.3,42.6,29.5,96,75,52,30.22,29.99,24,8,24,0.00
2013-2-7,55.4,48.5,37.8,50.5,41.2,29.8,97,78,50,30.38,29.98,29,9,29,0.17
2013-2-8,45.0,34.9,26.4,33.8,29.7,24.6,96,82,62,30.55,30.35,19,6,19,0.00
2013-2-9,48.7,40.2,35.1,41.7,35.8,31.3,97,84,69,30.35,29.81,30,12,31,0.01
2013-2-10,49.5,43.1,36.0,45.3,31.5,23.7,98,66,43,30.25,29.68,45,15,48,0.03
2013-2-11,45.5,36.8,28.9,24.6,20.8,17.4,74,54,34,30.44,30.25,18,6,18,0.00
2013-2-12,40.8,35.7,31.5,32.0,24.3,20.8,94,64,47,30.38,30.20,14,4,14,0.00
2013-2-13,57.0,39.9,26.4,30.0,24.5,16.2,94,60,21,30.22,30.08,29,6,29,0.00
2013-2-14,49.1,41.0,34.0,32.5,27.5,17.8,72,59,43,30.48,30.12,28,7,28,0.00
2013-2-15,39.9,30.9,20.8,20.1,16.4,11.3,81,57,35,30.65,30.49,26,8,27,0.00
2013-2-16,47.5,32.8,18.1,28.9,19.0,10.9,75,58,39,30.61,30.22,28,6,30,0.00
2013-2-17,68.4,48.4,30.2,34.2,29.0,25.0,88,53,20,30.22,29.74,28,7,29,0.00
2013-2-18,55.0,46.4,33.4,41.2,28.4,19.4,72,50,37,30.32,29.62,45,14,46,0.00
2013-2-19,43.9,34.2,25.9,20.7,16.4,8.2,72,50,34,30.56,30.32,19,6,20,0.00
2013-2-20,32.2,28.1,23.5,27.9,18.3,4.6,93,71,34,30.48,30.23,31,14,31,0.00
2013-2-21,28.0,23.5,16.3,26.6,21.5,13.6,94,92,86,30.23,29.92,31,11,31,0.00
2013-2-22,25.9,18.3,10.9,16.9,13.0,7.7,89,80,66,30.40,30.15,19,5,21,0.00
2013-2-23,34.0,22.5,9.7,25.0,17.4,7.3,92,81,66,30.37,30.16,14,3,15,0.01
2013-2-24,46.6,36.6,26.4,35.1,28.2,21.0,80,72,62,30.17,29.97,27,10,27,0.01
2013-2-25,38.1,33.2,31.1,32.4,30.4,27.7,97,89,79,30.08,29.86,44,14,44,0.02
2013-2-26,34.2,30.4,26.4,30.6,27.4,25.0,97,89,74,30.15,29.92,26,8,26,0.01
2013-2-27,37.6,31.6,26.2,27.7,25.8,23.0,94,80,62,30.41,30.14,31,10,32,0.01
2013-2-28,34.5,31.5,26.8,27.5,25.6,22.3,84,79,74,30.47,30.39,25,9,27,0.00